sensor_id;sensor_type;location;lat;lon;timestamp;pressure;altitude;pressure_sealevel;temperature;humidity
14232;BME280;7200;52.194;9.900;2024-03-25T00:01:53;99024.97;;;4.76;100.00
14232;BME280;7200;52.194;9.900;2024-03-25T00:04:18;99036.22;;;4.78;100.00
14232;BME280;7200;52.194;9.900;2024-03-25T00:06:46;99038.97;;;4.75;100.00
14232;BME280;7200;52.194;9.900;2024-03-25T00:09:11;99049.19;;;4.81;100.00
14232;BME280;7200;52.194;9.900;2024-03-25T00:11:40;99052.44;;;4.87;100.00
14232;BME280;7200;52.194;9.900;2024-03-25T00:14:05;99064.44;;;4.93;100.00
14232;BME280;7200;52.194;9.900;2024-03-25T00:16:30;99061.63;;;4.99;100.00
14232;BME280;7200;52.194;9.900;2024-03-25T00:18:56;99068.53;;;5.00;100.00
14232;BME280;7200;52.194;9.900;2024-03-25T00:21:21;99065.16;;;4.97;100.00
14232;BME280;7200;52.194;9.900;2024-03-25T00:23:46;99067.16;;;4.90;100.00
14232;BME280;7200;52.194;9.900;2024-03-25T00:26:12;99071.91;;;4.79;100.00
14232;BME280;7200;52.194;9.900;2024-03-25T00:28:38;99065.22;;;4.70;100.00
14232;BME280;7200;52.194;9.900;2024-03-25T00:31:04;99077.50;;;4.68;100.00
14232;BME280;7200;52.194;9.900;2024-03-25T00:33:29;99091.31;;;4.72;100.00
14232;BME280;7200;52.194;9.900;2024-03-25T00:35:54;99094.94;;;4.67;100.00
14232;BME280;7200;52.194;9.900;2024-03-25T00:38:20;99076.97;;;4.32;100.00
14232;BME280;7200;52.194;9.900;2024-03-25T00:40:45;99080.56;;;4.27;100.00
14232;BME280;7200;52.194;9.900;2024-03-25T00:43:10;99099.69;;;4.29;100.00
14232;BME280;7200;52.194;9.900;2024-03-25T00:45:36;99106.47;;;4.35;100.00
14232;BME280;7200;52.194;9.900;2024-03-25T00:48:02;99115.13;;;4.36;100.00
14232;BME280;7200;52.194;9.900;2024-03-25T00:50:27;99129.88;;;4.37;100.00
14232;BME280;7200;52.194;9.900;2024-03-25T00:52:53;99106.09;;;4.46;100.00
14232;BME280;7200;52.194;9.900;2024-03-25T00:55:18;99115.53;;;4.50;100.00
14232;BME280;7200;52.194;9.900;2024-03-25T00:57:44;99119.69;;;4.56;100.00
14232;BME280;7200;52.194;9.900;2024-03-25T01:00:10;99106.50;;;4.60;100.00
14232;BME280;7200;52.194;9.900;2024-03-25T01:02:35;99120.91;;;4.72;100.00
14232;BME280;7200;52.194;9.900;2024-03-25T01:05:01;99131.25;;;4.75;100.00
14232;BME280;7200;52.194;9.900;2024-03-25T01:07:27;99127.69;;;4.78;100.00
14232;BME280;7200;52.194;9.900;2024-03-25T01:09:53;99132.81;;;4.81;100.00
14232;BME280;7200;52.194;9.900;2024-03-25T01:12:18;99141.53;;;4.80;100.00
14232;BME280;7200;52.194;9.900;2024-03-25T01:14:43;99148.31;;;4.85;100.00
14232;BME280;7200;52.194;9.900;2024-03-25T01:17:09;99144.00;;;4.84;100.00
14232;BME280;7200;52.194;9.900;2024-03-25T01:19:34;99162.13;;;4.89;100.00
14232;BME280;7200;52.194;9.900;2024-03-25T01:21:59;99157.75;;;4.90;100.00
14232;BME280;7200;52.194;9.900;2024-03-25T01:24:25;99156.06;;;4.88;100.00
14232;BME280;7200;52.194;9.900;2024-03-25T01:26:50;99162.09;;;4.91;100.00
14232;BME280;7200;52.194;9.900;2024-03-25T01:29:16;99164.75;;;4.89;100.00
14232;BME280;7200;52.194;9.900;2024-03-25T01:31:42;99169.09;;;4.90;100.00
14232;BME280;7200;52.194;9.900;2024-03-25T01:34:07;99171.66;;;4.92;100.00
14232;BME280;7200;52.194;9.900;2024-03-25T01:36:32;99180.13;;;4.98;100.00
14232;BME280;7200;52.194;9.900;2024-03-25T01:38:59;99180.16;;;4.97;100.00
14232;BME280;7200;52.194;9.900;2024-03-25T01:41:24;99179.25;;;4.99;100.00
14232;BME280;7200;52.194;9.900;2024-03-25T01:43:50;99179.28;;;4.98;100.00
14232;BME280;7200;52.194;9.900;2024-03-25T01:46:17;99180.72;;;5.06;100.00
14232;BME280;7200;52.194;9.900;2024-03-25T01:48:44;99181.72;;;5.02;100.00
14232;BME280;7200;52.194;9.900;2024-03-25T01:51:11;99187.00;;;5.01;100.00
14232;BME280;7200;52.194;9.900;2024-03-25T01:53:37;99190.28;;;5.07;100.00
14232;BME280;7200;52.194;9.900;2024-03-25T01:56:03;99179.78;;;5.09;100.00
14232;BME280;7200;52.194;9.900;2024-03-25T01:58:29;99182.34;;;5.11;100.00
14232;BME280;7200;52.194;9.900;2024-03-25T02:00:56;99181.28;;;5.16;100.00
14232;BME280;7200;52.194;9.900;2024-03-25T02:03:22;99184.69;;;5.18;100.00
14232;BME280;7200;52.194;9.900;2024-03-25T02:05:50;99184.78;;;5.15;100.00
14232;BME280;7200;52.194;9.900;2024-03-25T02:08:18;99178.06;;;5.08;100.00
14232;BME280;7200;52.194;9.900;2024-03-25T02:10:44;99175.44;;;5.08;100.00
14232;BME280;7200;52.194;9.900;2024-03-25T02:13:10;99184.03;;;5.12;100.00
14232;BME280;7200;52.194;9.900;2024-03-25T02:15:36;99185.75;;;5.13;100.00
14232;BME280;7200;52.194;9.900;2024-03-25T02:18:01;99171.31;;;5.01;100.00
14232;BME280;7200;52.194;9.900;2024-03-25T02:20:27;99174.69;;;5.04;100.00
14232;BME280;7200;52.194;9.900;2024-03-25T02:22:52;99162.19;;;4.87;100.00
14232;BME280;7200;52.194;9.900;2024-03-25T02:25:18;99165.84;;;4.82;100.00
14232;BME280;7200;52.194;9.900;2024-03-25T02:27:44;99160.72;;;4.80;100.00
14232;BME280;7200;52.194;9.900;2024-03-25T02:30:10;99163.19;;;4.83;100.00
14232;BME280;7200;52.194;9.900;2024-03-25T02:32:38;99173.81;;;4.79;100.00
14232;BME280;7200;52.194;9.900;2024-03-25T02:35:05;99167.13;;;4.70;100.00
14232;BME280;7200;52.194;9.900;2024-03-25T02:37:32;99179.19;;;4.74;100.00
14232;BME280;7200;52.194;9.900;2024-03-25T02:39:59;99179.19;;;4.74;100.00
14232;BME280;7200;52.194;9.900;2024-03-25T02:42:26;99181.00;;;4.72;100.00
14232;BME280;7200;52.194;9.900;2024-03-25T02:44:53;99191.44;;;4.72;100.00
14232;BME280;7200;52.194;9.900;2024-03-25T02:47:19;99197.84;;;4.63;100.00
14232;BME280;7200;52.194;9.900;2024-03-25T02:49:45;99195.22;;;4.63;100.00
14232;BME280;7200;52.194;9.900;2024-03-25T02:52:11;99185.56;;;4.65;100.00
14232;BME280;7200;52.194;9.900;2024-03-25T02:54:36;99195.16;;;4.65;100.00
14232;BME280;7200;52.194;9.900;2024-03-25T02:57:01;99195.09;;;4.66;100.00
14232;BME280;7200;52.194;9.900;2024-03-25T02:59:26;99197.00;;;4.61;100.00
14232;BME280;7200;52.194;9.900;2024-03-25T03:01:52;99209.13;;;4.64;100.00
14232;BME280;7200;52.194;9.900;2024-03-25T03:04:17;99210.06;;;4.61;100.00
14232;BME280;7200;52.194;9.900;2024-03-25T03:06:42;99208.47;;;4.57;100.00
14232;BME280;7200;52.194;9.900;2024-03-25T03:09:08;99210.38;;;4.52;100.00
14232;BME280;7200;52.194;9.900;2024-03-25T03:11:33;99210.25;;;4.55;100.00
14232;BME280;7200;52.194;9.900;2024-03-25T03:13:58;99217.00;;;4.62;100.00
14232;BME280;7200;52.194;9.900;2024-03-25T03:16:24;99228.34;;;4.61;100.00
14232;BME280;7200;52.194;9.900;2024-03-25T03:18:49;99217.72;;;4.67;100.00
14232;BME280;7200;52.194;9.900;2024-03-25T03:21:14;99226.03;;;4.80;100.00
14232;BME280;7200;52.194;9.900;2024-03-25T03:23:40;99225.16;;;4.80;100.00
14232;BME280;7200;52.194;9.900;2024-03-25T03:26:05;99234.69;;;4.82;100.00
14232;BME280;7200;52.194;9.900;2024-03-25T03:28:30;99231.13;;;4.83;100.00
14232;BME280;7200;52.194;9.900;2024-03-25T03:30:56;99227.69;;;4.83;100.00
14232;BME280;7200;52.194;9.900;2024-03-25T03:33:21;99227.69;;;4.83;100.00
14232;BME280;7200;52.194;9.900;2024-03-25T03:35:46;99234.38;;;4.92;100.00
14232;BME280;7200;52.194;9.900;2024-03-25T03:38:12;99234.38;;;4.92;100.00
14232;BME280;7200;52.194;9.900;2024-03-25T03:40:37;99240.41;;;4.94;100.00
14232;BME280;7200;52.194;9.900;2024-03-25T03:43:03;99247.25;;;4.98;100.00
14232;BME280;7200;52.194;9.900;2024-03-25T03:45:33;99242.94;;;4.95;100.00
14232;BME280;7200;52.194;9.900;2024-03-25T03:47:59;99249.34;;;4.86;100.00
14232;BME280;7200;52.194;9.900;2024-03-25T03:50:24;99249.34;;;4.86;100.00
14232;BME280;7200;52.194;9.900;2024-03-25T03:52:49;99246.69;;;4.88;100.00
14232;BME280;7200;52.194;9.900;2024-03-25T03:55:14;99249.31;;;4.88;100.00
14232;BME280;7200;52.194;9.900;2024-03-25T03:57:40;99247.53;;;4.88;100.00
14232;BME280;7200;52.194;9.900;2024-03-25T04:00:08;99244.97;;;4.87;100.00
14232;BME280;7200;52.194;9.900;2024-03-25T04:02:34;99245.81;;;4.87;100.00
14232;BME280;7200;52.194;9.900;2024-03-25T04:04:59;99257.38;;;4.80;100.00
14232;BME280;7200;52.194;9.900;2024-03-25T04:07:24;99250.53;;;4.76;100.00
14232;BME280;7200;52.194;9.900;2024-03-25T04:09:53;99248.88;;;4.74;100.00
14232;BME280;7200;52.194;9.900;2024-03-25T04:12:18;99248.03;;;4.73;100.00
14232;BME280;7200;52.194;9.900;2024-03-25T04:14:46;99248.44;;;4.59;100.00
14232;BME280;7200;52.194;9.900;2024-03-25T04:17:12;99252.78;;;4.60;100.00
14232;BME280;7200;52.194;9.900;2024-03-25T04:19:38;99254.59;;;4.58;100.00
14232;BME280;7200;52.194;9.900;2024-03-25T04:22:04;99247.59;;;4.59;100.00
14232;BME280;7200;52.194;9.900;2024-03-25T04:24:29;99245.06;;;4.56;100.00
14232;BME280;7200;52.194;9.900;2024-03-25T04:26:54;99252.91;;;4.56;100.00
14232;BME280;7200;52.194;9.900;2024-03-25T04:29:20;99259.69;;;4.61;100.00
14232;BME280;7200;52.194;9.900;2024-03-25T04:31:45;99265.84;;;4.60;100.00
14232;BME280;7200;52.194;9.900;2024-03-25T04:34:10;99268.28;;;4.65;100.00
14232;BME280;7200;52.194;9.900;2024-03-25T04:36:36;99274.44;;;4.64;100.00
14232;BME280;7200;52.194;9.900;2024-03-25T04:39:01;99280.56;;;4.63;100.00
14232;BME280;7200;52.194;9.900;2024-03-25T04:41:27;99273.34;;;4.71;100.00
14232;BME280;7200;52.194;9.900;2024-03-25T04:43:52;99273.34;;;4.71;100.00
14232;BME280;7200;52.194;9.900;2024-03-25T04:46:18;99286.34;;;4.73;100.00
14232;BME280;7200;52.194;9.900;2024-03-25T04:48:43;99294.78;;;4.82;100.00
14232;BME280;7200;52.194;9.900;2024-03-25T04:51:09;99287.97;;;4.77;100.00
14232;BME280;7200;52.194;9.900;2024-03-25T04:53:35;99291.44;;;4.77;100.00
14232;BME280;7200;52.194;9.900;2024-03-25T04:56:00;99299.19;;;4.80;100.00
14232;BME280;7200;52.194;9.900;2024-03-25T04:58:26;99301.13;;;4.74;100.00
14232;BME280;7200;52.194;9.900;2024-03-25T05:00:51;99313.16;;;4.79;100.00
14232;BME280;7200;52.194;9.900;2024-03-25T05:03:16;99317.50;;;4.80;100.00
14232;BME280;7200;52.194;9.900;2024-03-25T05:05:42;99318.47;;;4.76;100.00
14232;BME280;7200;52.194;9.900;2024-03-25T05:08:07;99323.59;;;4.79;100.00
14232;BME280;7200;52.194;9.900;2024-03-25T05:10:33;99335.72;;;4.82;100.00
14232;BME280;7200;52.194;9.900;2024-03-25T05:12:59;99337.56;;;4.78;100.00
14232;BME280;7200;52.194;9.900;2024-03-25T05:15:24;99321.22;;;4.72;100.00
14232;BME280;7200;52.194;9.900;2024-03-25T05:17:50;99324.72;;;4.71;100.00
14232;BME280;7200;52.194;9.900;2024-03-25T05:20:15;99331.47;;;4.78;100.00
14232;BME280;7200;52.194;9.900;2024-03-25T05:22:41;99339.44;;;4.75;100.00
14232;BME280;7200;52.194;9.900;2024-03-25T05:25:06;99341.28;;;4.71;100.00
14232;BME280;7200;52.194;9.900;2024-03-25T05:27:32;99346.13;;;4.83;100.00
14232;BME280;7200;52.194;9.900;2024-03-25T05:29:58;99346.31;;;4.77;100.00
14232;BME280;7200;52.194;9.900;2024-03-25T05:32:23;99361.69;;;4.88;100.00
14232;BME280;7200;52.194;9.900;2024-03-25T05:34:48;99367.88;;;4.84;100.00
14232;BME280;7200;52.194;9.900;2024-03-25T05:37:14;99368.78;;;4.83;100.00
14232;BME280;7200;52.194;9.900;2024-03-25T05:39:40;99377.59;;;4.80;100.00
14232;BME280;7200;52.194;9.900;2024-03-25T05:42:05;99390.22;;;4.94;100.00
14232;BME280;7200;52.194;9.900;2024-03-25T05:44:31;99389.44;;;4.92;100.00
14232;BME280;7200;52.194;9.900;2024-03-25T05:46:56;99387.63;;;4.94;100.00
14232;BME280;7200;52.194;9.900;2024-03-25T05:49:21;99389.16;;;5.01;100.00
14232;BME280;7200;52.194;9.900;2024-03-25T05:51:47;99400.38;;;5.05;100.00
14232;BME280;7200;52.194;9.900;2024-03-25T05:54:13;99397.56;;;5.11;100.00
14232;BME280;7200;52.194;9.900;2024-03-25T05:56:38;99400.13;;;5.13;100.00
14232;BME280;7200;52.194;9.900;2024-03-25T05:59:03;99401.88;;;5.12;100.00
14232;BME280;7200;52.194;9.900;2024-03-25T06:01:28;99408.81;;;5.13;100.00
14232;BME280;7200;52.194;9.900;2024-03-25T06:03:54;99406.06;;;5.18;100.00
14232;BME280;7200;52.194;9.900;2024-03-25T06:06:19;99416.47;;;5.19;100.00
14232;BME280;7200;52.194;9.900;2024-03-25T06:08:45;99417.19;;;5.24;100.00
14232;BME280;7200;52.194;9.900;2024-03-25T06:11:10;99417.00;;;5.31;100.00
14232;BME280;7200;52.194;9.900;2024-03-25T06:13:35;99425.69;;;5.31;100.00
14232;BME280;7200;52.194;9.900;2024-03-25T06:16:01;99419.78;;;5.26;100.00
14232;BME280;7200;52.194;9.900;2024-03-25T06:18:26;99425.75;;;5.30;100.00
14232;BME280;7200;52.194;9.900;2024-03-25T06:20:52;99420.38;;;5.34;100.00
14232;BME280;7200;52.194;9.900;2024-03-25T06:23:27;99423.75;;;5.38;100.00
14232;BME280;7200;52.194;9.900;2024-03-25T06:25:54;99429.94;;;5.35;100.00
14232;BME280;7200;52.194;9.900;2024-03-25T06:28:20;99431.81;;;5.32;100.00
14232;BME280;7200;52.194;9.900;2024-03-25T06:30:46;99429.31;;;5.27;100.00
14232;BME280;7200;52.194;9.900;2024-03-25T06:33:30;99426.78;;;5.25;100.00
14232;BME280;7200;52.194;9.900;2024-03-25T06:36:15;99429.88;;;5.37;100.00
14232;BME280;7200;52.194;9.900;2024-03-25T06:38:41;99432.66;;;5.32;100.00
14232;BME280;7200;52.194;9.900;2024-03-25T06:41:06;99428.31;;;5.31;100.00
14232;BME280;7200;52.194;9.900;2024-03-25T06:43:31;99435.22;;;5.34;100.00
14232;BME280;7200;52.194;9.900;2024-03-25T06:45:57;99435.22;;;5.34;100.00
14232;BME280;7200;52.194;9.900;2024-03-25T06:48:23;99443.72;;;5.40;100.00
14232;BME280;7200;52.194;9.900;2024-03-25T06:50:58;99440.44;;;5.34;100.00
14232;BME280;7200;52.194;9.900;2024-03-25T06:53:24;99435.25;;;5.32;100.00
14232;BME280;7200;52.194;9.900;2024-03-25T06:55:56;99448.63;;;5.23;100.00
14232;BME280;7200;52.194;9.900;2024-03-25T06:58:23;99449.56;;;5.20;100.00
14232;BME280;7200;52.194;9.900;2024-03-25T07:00:49;99447.84;;;5.19;100.00
14232;BME280;7200;52.194;9.900;2024-03-25T07:03:16;99457.38;;;5.22;100.00
14232;BME280;7200;52.194;9.900;2024-03-25T07:05:44;99455.88;;;5.13;100.00
14232;BME280;7200;52.194;9.900;2024-03-25T07:08:10;99462.69;;;5.19;100.00
14232;BME280;7200;52.194;9.900;2024-03-25T07:10:36;99469.47;;;5.26;100.00
14232;BME280;7200;52.194;9.900;2024-03-25T07:13:01;99479.69;;;5.34;100.00
14232;BME280;7200;52.194;9.900;2024-03-25T07:15:26;99480.44;;;5.37;100.00
14232;BME280;7200;52.194;9.900;2024-03-25T07:17:52;99485.84;;;5.31;100.00
14232;BME280;7200;52.194;9.900;2024-03-25T07:20:17;99489.72;;;5.47;100.00
14232;BME280;7200;52.194;9.900;2024-03-25T07:22:42;99487.13;;;5.46;100.00
14232;BME280;7200;52.194;9.900;2024-03-25T07:25:07;99489.75;;;5.46;100.00
14232;BME280;7200;52.194;9.900;2024-03-25T07:27:34;99499.97;;;5.54;100.00
14232;BME280;7200;52.194;9.900;2024-03-25T07:30:00;99502.22;;;5.66;100.00
14232;BME280;7200;52.194;9.900;2024-03-25T07:32:25;99507.25;;;5.72;100.00
14232;BME280;7200;52.194;9.900;2024-03-25T07:34:50;99500.59;;;5.63;100.00
14232;BME280;7200;52.194;9.900;2024-03-25T07:37:16;99497.84;;;5.66;100.00
14232;BME280;7200;52.194;9.900;2024-03-25T07:39:42;99503.13;;;5.65;100.00
14232;BME280;7200;52.194;9.900;2024-03-25T07:42:07;99500.41;;;5.68;100.00
14232;BME280;7200;52.194;9.900;2024-03-25T07:44:33;99513.31;;;5.74;100.00
14232;BME280;7200;52.194;9.900;2024-03-25T07:46:58;99504.41;;;5.80;100.00
14232;BME280;7200;52.194;9.900;2024-03-25T07:49:23;99507.09;;;5.78;100.00
14232;BME280;7200;52.194;9.900;2024-03-25T07:51:49;99501.03;;;5.76;100.00
14232;BME280;7200;52.194;9.900;2024-03-25T07:54:14;99505.47;;;5.74;100.00
14232;BME280;7200;52.194;9.900;2024-03-25T07:56:42;99495.66;;;5.81;100.00
14232;BME280;7200;52.194;9.900;2024-03-25T07:59:07;99495.25;;;5.93;100.00
14232;BME280;7200;52.194;9.900;2024-03-25T08:01:32;99498.53;;;6.01;100.00
14232;BME280;7200;52.194;9.900;2024-03-25T08:03:58;99500.38;;;5.98;100.00
14232;BME280;7200;52.194;9.900;2024-03-25T08:06:23;99495.44;;;6.15;100.00
14232;BME280;7200;52.194;9.900;2024-03-25T08:08:49;99488.00;;;6.03;100.00
14232;BME280;7200;52.194;9.900;2024-03-25T08:11:14;99494.63;;;6.13;100.00
14232;BME280;7200;52.194;9.900;2024-03-25T08:13:39;99481.81;;;6.06;100.00
14232;BME280;7200;52.194;9.900;2024-03-25T08:16:05;99482.22;;;6.20;100.00
14232;BME280;7200;52.194;9.900;2024-03-25T08:18:31;99478.25;;;6.33;100.00
14232;BME280;7200;52.194;9.900;2024-03-25T08:20:56;99478.03;;;6.39;100.00
14232;BME280;7200;52.194;9.900;2024-03-25T08:23:21;99480.22;;;6.27;100.00
14232;BME280;7200;52.194;9.900;2024-03-25T08:25:47;99478.31;;;6.32;100.00
14232;BME280;7200;52.194;9.900;2024-03-25T08:28:12;99472.84;;;6.38;100.00
14232;BME280;7200;52.194;9.900;2024-03-25T08:30:37;99465.59;;;6.46;100.00
14232;BME280;7200;52.194;9.900;2024-03-25T08:33:03;99460.09;;;6.54;100.00
14232;BME280;7200;52.194;9.900;2024-03-25T08:35:29;99466.53;;;6.43;100.00
14232;BME280;7200;52.194;9.900;2024-03-25T08:37:54;99463.59;;;6.53;100.00
14232;BME280;7200;52.194;9.900;2024-03-25T08:40:19;99459.75;;;6.63;100.00
14232;BME280;7200;52.194;9.900;2024-03-25T08:42:44;99454.69;;;6.82;100.00
14232;BME280;7200;52.194;9.900;2024-03-25T08:45:10;99444.41;;;6.76;100.00
14232;BME280;7200;52.194;9.900;2024-03-25T08:47:35;99450.41;;;7.03;100.00
14232;BME280;7200;52.194;9.900;2024-03-25T08:50:01;99444.81;;;7.12;100.00
14232;BME280;7200;52.194;9.900;2024-03-25T08:52:26;99437.00;;;7.11;100.00
14232;BME280;7200;52.194;9.900;2024-03-25T08:54:51;99433.69;;;7.06;100.00
14232;BME280;7200;52.194;9.900;2024-03-25T08:57:17;99424.59;;;6.92;100.00
14232;BME280;7200;52.194;9.900;2024-03-25T08:59:42;99426.13;;;6.98;100.00
14232;BME280;7200;52.194;9.900;2024-03-25T09:02:07;99420.03;;;6.74;100.00
14232;BME280;7200;52.194;9.900;2024-03-25T09:04:33;99419.88;;;6.78;100.00
14232;BME280;7200;52.194;9.900;2024-03-25T09:06:59;99414.69;;;6.77;100.00
14232;BME280;7200;52.194;9.900;2024-03-25T09:09:24;99416.63;;;6.72;100.00
14232;BME280;7200;52.194;9.900;2024-03-25T09:12:08;99412.81;;;6.80;100.00
14232;BME280;7200;52.194;9.900;2024-03-25T09:14:34;99414.44;;;6.83;100.00
14232;BME280;7200;52.194;9.900;2024-03-25T09:16:59;99415.25;;;6.85;100.00
14232;BME280;7200;52.194;9.900;2024-03-25T09:19:24;99406.59;;;6.83;100.00
14232;BME280;7200;52.194;9.900;2024-03-25T09:21:50;99412.41;;;6.91;100.00
14232;BME280;7200;52.194;9.900;2024-03-25T09:24:16;99401.09;;;6.89;100.00
14232;BME280;7200;52.194;9.900;2024-03-25T09:26:42;99400.00;;;6.95;100.00
14232;BME280;7200;52.194;9.900;2024-03-25T09:29:08;99413.56;;;7.06;100.00
14232;BME280;7200;52.194;9.900;2024-03-25T09:31:33;99397.19;;;7.01;100.00
14232;BME280;7200;52.194;9.900;2024-03-25T09:33:58;99403.50;;;7.17;100.00
14232;BME280;7200;52.194;9.900;2024-03-25T09:36:24;99391.03;;;7.24;100.00
14232;BME280;7200;52.194;9.900;2024-03-25T09:38:49;99386.22;;;7.35;100.00
14232;BME280;7200;52.194;9.900;2024-03-25T09:41:16;99397.31;;;7.20;100.00
14232;BME280;7200;52.194;9.900;2024-03-25T09:43:52;99399.94;;;7.20;100.00
14232;BME280;7200;52.194;9.900;2024-03-25T09:46:19;99397.75;;;7.31;100.00
14232;BME280;7200;52.194;9.900;2024-03-25T09:48:44;99392.44;;;7.33;100.00
14232;BME280;7200;52.194;9.900;2024-03-25T09:51:09;99399.38;;;7.56;100.00
14232;BME280;7200;52.194;9.900;2024-03-25T09:53:35;99394.72;;;7.63;100.00
14232;BME280;7200;52.194;9.900;2024-03-25T09:56:00;99393.00;;;7.84;100.00
14232;BME280;7200;52.194;9.900;2024-03-25T09:58:27;99389.47;;;7.63;100.00
14232;BME280;7200;52.194;9.900;2024-03-25T10:00:54;99401.59;;;7.45;100.00
14232;BME280;7200;52.194;9.900;2024-03-25T10:03:23;99397.44;;;7.39;100.00
14232;BME280;7200;52.194;9.900;2024-03-25T10:05:51;99402.25;;;7.28;100.00
14232;BME280;7200;52.194;9.900;2024-03-25T10:08:23;99394.81;;;7.39;100.00
14232;BME280;7200;52.194;9.900;2024-03-25T10:10:51;99400.53;;;7.27;100.00
14232;BME280;7200;52.194;9.900;2024-03-25T10:13:19;99397.50;;;7.37;100.00
14232;BME280;7200;52.194;9.900;2024-03-25T10:15:47;99403.09;;;7.50;100.00
14232;BME280;7200;52.194;9.900;2024-03-25T10:18:16;99404.81;;;7.29;100.00
14232;BME280;7200;52.194;9.900;2024-03-25T10:20:54;99400.84;;;7.63;100.00
14232;BME280;7200;52.194;9.900;2024-03-25T10:23:23;99397.44;;;7.82;100.00
14232;BME280;7200;52.194;9.900;2024-03-25T10:25:52;99399.66;;;7.70;100.00
14232;BME280;7200;52.194;9.900;2024-03-25T10:28:18;99398.09;;;7.87;100.00
14232;BME280;7200;52.194;9.900;2024-03-25T10:30:43;99397.66;;;7.97;100.00
14232;BME280;7200;52.194;9.900;2024-03-25T10:33:09;99396.03;;;7.95;100.00
14232;BME280;7200;52.194;9.900;2024-03-25T10:35:36;99399.84;;;8.08;100.00
14232;BME280;7200;52.194;9.900;2024-03-25T10:38:09;99395.81;;;7.79;100.00
14232;BME280;7200;52.194;9.900;2024-03-25T10:40:39;99400.22;;;7.99;100.00
14232;BME280;7200;52.194;9.900;2024-03-25T10:43:08;99410.41;;;8.07;100.00
14232;BME280;7200;52.194;9.900;2024-03-25T10:45:36;99403.66;;;8.01;100.00
14232;BME280;7200;52.194;9.900;2024-03-25T10:48:28;99406.13;;;8.04;100.00
14232;BME280;7200;52.194;9.900;2024-03-25T10:50:55;99403.66;;;8.22;100.00
14232;BME280;7200;52.194;9.900;2024-03-25T10:53:22;99393.16;;;8.42;100.00
14232;BME280;7200;52.194;9.900;2024-03-25T10:55:54;99395.50;;;8.28;100.00
14232;BME280;7200;52.194;9.900;2024-03-25T10:58:21;99393.00;;;8.45;100.00
14232;BME280;7200;52.194;9.900;2024-03-25T11:00:52;99395.81;;;8.20;100.00
14232;BME280;7200;52.194;9.900;2024-03-25T11:03:20;99394.31;;;8.55;100.00
14232;BME280;7200;52.194;9.900;2024-03-25T11:05:46;99387.66;;;8.86;100.00
14232;BME280;7200;52.194;9.900;2024-03-25T11:08:12;99396.75;;;8.98;100.00
14232;BME280;7200;52.194;9.900;2024-03-25T11:10:43;99381.09;;;8.57;100.00
14232;BME280;7200;52.194;9.900;2024-03-25T11:13:12;99380.16;;;8.58;100.00
14232;BME280;7200;52.194;9.900;2024-03-25T11:15:42;99394.56;;;8.29;100.00
14232;BME280;7200;52.194;9.900;2024-03-25T11:18:15;99395.81;;;8.41;100.00
14232;BME280;7200;52.194;9.900;2024-03-25T11:20:41;99397.31;;;8.26;100.00
14232;BME280;7200;52.194;9.900;2024-03-25T11:23:13;99390.22;;;8.28;100.00
14232;BME280;7200;52.194;9.900;2024-03-25T11:25:40;99376.81;;;8.54;100.00
14232;BME280;7200;52.194;9.900;2024-03-25T11:28:06;99380.41;;;8.72;100.00
14232;BME280;7200;52.194;9.900;2024-03-25T11:30:32;99380.34;;;8.74;100.00
14232;BME280;7200;52.194;9.900;2024-03-25T11:33:01;99374.00;;;8.78;100.00
14232;BME280;7200;52.194;9.900;2024-03-25T11:35:27;99370.06;;;8.87;100.00
14232;BME280;7200;52.194;9.900;2024-03-25T11:37:52;99364.81;;;8.68;100.00
14232;BME280;7200;52.194;9.900;2024-03-25T11:40:21;99360.97;;;8.56;100.00
14232;BME280;7200;52.194;9.900;2024-03-25T11:42:49;99356.44;;;8.60;100.00
14232;BME280;7200;52.194;9.900;2024-03-25T11:45:19;99351.72;;;8.47;100.00
14232;BME280;7200;52.194;9.900;2024-03-25T11:47:46;99361.63;;;8.41;100.00
14232;BME280;7200;52.194;9.900;2024-03-25T11:50:13;99353.75;;;8.41;100.00
14232;BME280;7200;52.194;9.900;2024-03-25T11:52:40;99359.53;;;8.28;100.00
14232;BME280;7200;52.194;9.900;2024-03-25T11:55:06;99356.06;;;8.28;100.00
14232;BME280;7200;52.194;9.900;2024-03-25T11:57:33;99367.97;;;8.16;100.00
14232;BME280;7200;52.194;9.900;2024-03-25T12:00:05;99366.06;;;8.19;100.00
14232;BME280;7200;52.194;9.900;2024-03-25T12:02:31;99363.16;;;8.46;100.00
14232;BME280;7200;52.194;9.900;2024-03-25T12:04:57;99369.22;;;8.28;100.00
14232;BME280;7200;52.194;9.900;2024-03-25T12:07:23;99366.31;;;8.13;100.00
14232;BME280;7200;52.194;9.900;2024-03-25T12:09:48;99384.97;;;8.28;100.00
14232;BME280;7200;52.194;9.900;2024-03-25T12:12:33;99374.66;;;8.44;100.00
14232;BME280;7200;52.194;9.900;2024-03-25T12:15:00;99379.44;;;8.54;100.00
14232;BME280;7200;52.194;9.900;2024-03-25T12:17:28;99385.88;;;8.27;100.00
14232;BME280;7200;52.194;9.900;2024-03-25T12:20:02;99388.03;;;8.37;100.00
14232;BME280;7200;52.194;9.900;2024-03-25T12:22:31;99390.31;;;8.47;100.00
14232;BME280;7200;52.194;9.900;2024-03-25T12:24:59;99392.75;;;8.31;100.00
14232;BME280;7200;52.194;9.900;2024-03-25T12:27:25;99377.59;;;8.36;100.00
14232;BME280;7200;52.194;9.900;2024-03-25T12:32:36;99374.38;;;8.70;100.00
14232;BME280;7200;52.194;9.900;2024-03-25T12:35:02;99370.78;;;8.52;100.00
14232;BME280;7200;52.194;9.900;2024-03-25T12:37:28;99365.03;;;8.44;100.00
14232;BME280;7200;52.194;9.900;2024-03-25T12:39:54;99367.66;;;8.44;100.00
14232;BME280;7200;52.194;9.900;2024-03-25T12:42:19;99375.50;;;8.84;100.00
14232;BME280;7200;52.194;9.900;2024-03-25T12:44:44;99370.78;;;8.71;100.00
14232;BME280;7200;52.194;9.900;2024-03-25T12:47:10;99375.06;;;8.74;100.00
14232;BME280;7200;52.194;9.900;2024-03-25T12:49:35;99370.56;;;9.14;100.00
14232;BME280;7200;52.194;9.900;2024-03-25T12:52:01;99359.09;;;9.15;100.00
14232;BME280;7200;52.194;9.900;2024-03-25T12:54:29;99358.03;;;9.38;100.00
14232;BME280;7200;52.194;9.900;2024-03-25T12:56:55;99343.91;;;9.57;100.00
14232;BME280;7200;52.194;9.900;2024-03-25T12:59:20;99331.06;;;9.33;100.00
14232;BME280;7200;52.194;9.900;2024-03-25T13:01:46;99324.34;;;9.08;100.00
14232;BME280;7200;52.194;9.900;2024-03-25T13:04:11;99332.72;;;9.16;100.00
14232;BME280;7200;52.194;9.900;2024-03-25T13:06:36;99340.88;;;9.29;100.00
14232;BME280;7200;52.194;9.900;2024-03-25T13:09:02;99359.88;;;9.88;100.00